Ocean Caesar — 3ERO5 — position and weather

sailwx.info

Track history (hours):
 
Tides and Currents Weather Stations Pressure Air Temp Water Temp Dewpoint Dewpoint Depression Visibility Wind Speed Wind Dir Waves Ship Positions

Ocean Caesar

Last reported at 2018-Jun-06 23:20 UTC. Time now 2018-Jun-23 16:03 UTC.
Position N 01°47' E 102°40'.
Warning: this ship's position is 16 days out of date.

Length 288 m; draft 8.7 m.

Type: Ship. MMSI: 370118000.

Date/timePositionNaut miles runAvg speedWind from/ knotsBaromVisibWave heightAir tempDewpointWater temp
2018-Jun-06 23:20N 01°47' E 102°40'613.8
2018-Jun-06 22:56N 01°44' E 102°45'613.6
2018-Jun-06 22:29N 01°42' E 102°50'2312.8
2018-Jun-06 20:41N 01°29' E 103°10'513.5
2018-Jun-06 20:20N 01°26' E 103°13'512.7
2018-Jun-06 19:58N 01°22' E 103°17'613.0
2018-Jun-06 19:30N 01°18' E 103°21'713.4
2018-Jun-06 18:59N 01°14' E 103°26'713.5
2018-Jun-06 18:30N 01°13' E 103°33'713.2
2018-Jun-06 17:59N 01°11' E 103°39'611.7
2018-Jun-06 17:30N 01°09' E 103°44'713.1
2018-Jun-06 17:00N 01°12' E 103°50'713.5
2018-Jun-06 16:30N 01°14' E 103°56'611.1
2018-Jun-06 15:59N 01°17' E 104°02'1 0.8
2018-Jun-06 15:13N 01°17' E 104°01'0 0.0
2018-Jun-06 14:55N 01°17' E 104°01'0 0.0
2018-Jun-06 14:28N 01°17' E 104°01'0 0.0
2018-Jun-06 13:58N 01°17' E 104°01'0 0.0
2018-Jun-06 13:04N 01°17' E 104°01'0 0.3
2018-Jun-06 12:52N 01°17' E 104°01'0 0.2
2018-Jun-06 12:28N 01°17' E 104°01'0 0.1
2018-Jun-06 11:59N 01°17' E 104°01'0 0.0
2018-Jun-06 11:25N 01°17' E 104°01'0 0.0
2018-Jun-06 10:46N 01°17' E 104°01'0 0.0
2018-Jun-06 10:30N 01°17' E 104°01'0 0.1
2018-Jun-06 10:00N 01°17' E 104°01'0 0.1
2018-Jun-06 09:28N 01°17' E 104°01'0 0.1
2018-Jun-06 08:59N 01°17' E 104°01'0 0.1
2018-Jun-06 08:30N 01°17' E 104°01'0 0.1
2018-Jun-06 08:00N 01°17' E 104°01'1 1.9
2018-Jun-06 07:30N 01°17' E 104°01'2 3.9
2018-Jun-06 07:00N 01°16' E 103°59'1 2.1
2018-Jun-06 06:30N 01°16' E 103°60'4 7.0
2018-Jun-06 05:59N 01°16' E 104°03'612.4
2018-Jun-06 05:30N 01°17' E 104°09'713.3
2018-Jun-06 04:59N 01°18' E 104°16'712.6
2018-Jun-06 04:28N 01°21' E 104°22'711.8
2018-Jun-06 03:54N 01°25' E 104°27'411.0
2018-Jun-06 03:30N 01°28' E 104°31'  
2018-May-31 06:50N 22°01' E 119°26'711.1
2018-May-31 06:14N 22°07' E 119°29'911.0
2018-May-31 05:23N 22°15' E 119°35'411.1
2018-May-31 05:00N 22°19' E 119°37'510.6
2018-May-31 04:30N 22°23' E 119°40'610.3
2018-May-31 03:57N 22°28' E 119°44'510.3
2018-May-31 03:30N 22°32' E 119°46'510.7
2018-May-31 03:00N 22°36' E 119°50'510.6
2018-May-31 02:31N 22°41' E 119°50'610.8
2018-May-31 01:59N 22°47' E 119°51'510.6
2018-May-31 01:28N 22°52' E 119°51'7410.4
2018-May-30 18:20N 24°06' E 120°03'  
Track history (hours):
 
Tides and Currents Weather Stations Pressure Air Temp Water Temp Dewpoint Dewpoint Depression Visibility Wind Speed Wind Dir Waves Ship Positions

Ocean Caesar

Last reported at 2018-Jun-06 23:20 UTC. Time now 2018-Jun-23 16:03 UTC.
Position N 01°47' E 102°40'.
Warning: this ship's position is 16 days out of date.

Length 288 m; draft 8.7 m.

Type: Ship. MMSI: 370118000.

Date/timePositionNaut miles runAvg speedWind from/ knotsBaromVisibWave heightAir tempDewpointWater temp
2018-Jun-06 23:20N 01°47' E 102°40'613.8
2018-Jun-06 22:56N 01°44' E 102°45'613.6
2018-Jun-06 22:29N 01°42' E 102°50'2312.8
2018-Jun-06 20:41N 01°29' E 103°10'513.5
2018-Jun-06 20:20N 01°26' E 103°13'512.7
2018-Jun-06 19:58N 01°22' E 103°17'613.0
2018-Jun-06 19:30N 01°18' E 103°21'713.4
2018-Jun-06 18:59N 01°14' E 103°26'713.5
2018-Jun-06 18:30N 01°13' E 103°33'713.2
2018-Jun-06 17:59N 01°11' E 103°39'611.7
2018-Jun-06 17:30N 01°09' E 103°44'713.1
2018-Jun-06 17:00N 01°12' E 103°50'713.5
2018-Jun-06 16:30N 01°14' E 103°56'611.1
2018-Jun-06 15:59N 01°17' E 104°02'1 0.8
2018-Jun-06 15:13N 01°17' E 104°01'0 0.0
2018-Jun-06 14:55N 01°17' E 104°01'0 0.0
2018-Jun-06 14:28N 01°17' E 104°01'0 0.0
2018-Jun-06 13:58N 01°17' E 104°01'0 0.0
2018-Jun-06 13:04N 01°17' E 104°01'0 0.3
2018-Jun-06 12:52N 01°17' E 104°01'0 0.2
2018-Jun-06 12:28N 01°17' E 104°01'0 0.1
2018-Jun-06 11:59N 01°17' E 104°01'0 0.0
2018-Jun-06 11:25N 01°17' E 104°01'0 0.0
2018-Jun-06 10:46N 01°17' E 104°01'0 0.0
2018-Jun-06 10:30N 01°17' E 104°01'0 0.1
2018-Jun-06 10:00N 01°17' E 104°01'0 0.1
2018-Jun-06 09:28N 01°17' E 104°01'0 0.1
2018-Jun-06 08:59N 01°17' E 104°01'0 0.1
2018-Jun-06 08:30N 01°17' E 104°01'0 0.1
2018-Jun-06 08:00N 01°17' E 104°01'1 1.9
2018-Jun-06 07:30N 01°17' E 104°01'2 3.9
2018-Jun-06 07:00N 01°16' E 103°59'1 2.1
2018-Jun-06 06:30N 01°16' E 103°60'4 7.0
2018-Jun-06 05:59N 01°16' E 104°03'612.4
2018-Jun-06 05:30N 01°17' E 104°09'713.3
2018-Jun-06 04:59N 01°18' E 104°16'712.6
2018-Jun-06 04:28N 01°21' E 104°22'711.8
2018-Jun-06 03:54N 01°25' E 104°27'411.0
2018-Jun-06 03:30N 01°28' E 104°31'  
2018-May-31 06:50N 22°01' E 119°26'711.1
2018-May-31 06:14N 22°07' E 119°29'911.0
2018-May-31 05:23N 22°15' E 119°35'411.1
2018-May-31 05:00N 22°19' E 119°37'510.6
2018-May-31 04:30N 22°23' E 119°40'610.3
2018-May-31 03:57N 22°28' E 119°44'510.3
2018-May-31 03:30N 22°32' E 119°46'510.7
2018-May-31 03:00N 22°36' E 119°50'510.6
2018-May-31 02:31N 22°41' E 119°50'610.8
2018-May-31 01:59N 22°47' E 119°51'510.6
2018-May-31 01:28N 22°52' E 119°51'7410.4
2018-May-30 18:20N 24°06' E 120°03'  

Dump ship's entire track history